sensor_id;sensor_type;location;lat;lon;timestamp;pressure;altitude;pressure_sealevel;temperature;humidity
4590;BME280;2307;48.448;9.216;2023-10-31T00:00:15;93973.44;;;10.39;100.00
4590;BME280;2307;48.448;9.216;2023-10-31T00:02:41;93977.38;;;10.41;100.00
4590;BME280;2307;48.448;9.216;2023-10-31T00:05:09;93991.63;;;10.40;100.00
4590;BME280;2307;48.448;9.216;2023-10-31T00:07:35;94001.13;;;10.41;100.00
4590;BME280;2307;48.448;9.216;2023-10-31T00:10:02;93982.13;;;10.39;100.00
4590;BME280;2307;48.448;9.216;2023-10-31T00:12:28;93984.25;;;10.42;100.00
4590;BME280;2307;48.448;9.216;2023-10-31T00:14:55;93986.88;;;10.42;100.00
4590;BME280;2307;48.448;9.216;2023-10-31T00:17:21;93990.56;;;10.41;100.00
4590;BME280;2307;48.448;9.216;2023-10-31T00:19:48;93985.28;;;10.46;100.00
4590;BME280;2307;48.448;9.216;2023-10-31T00:22:15;93991.34;;;10.47;100.00
4590;BME280;2307;48.448;9.216;2023-10-31T00:24:42;93995.31;;;10.44;100.00
4590;BME280;2307;48.448;9.216;2023-10-31T00:27:09;93992.69;;;10.49;100.00
4590;BME280;2307;48.448;9.216;2023-10-31T00:29:35;94001.34;;;10.50;100.00
4590;BME280;2307;48.448;9.216;2023-10-31T00:32:01;94012.44;;;10.47;100.00
4590;BME280;2307;48.448;9.216;2023-10-31T00:34:28;94016.97;;;10.46;100.00
4590;BME280;2307;48.448;9.216;2023-10-31T00:36:54;94014.59;;;10.45;100.00
4590;BME280;2307;48.448;9.216;2023-10-31T00:39:22;94018.53;;;10.47;100.00
4590;BME280;2307;48.448;9.216;2023-10-31T00:41:48;94006.91;;;10.48;100.00
4590;BME280;2307;48.448;9.216;2023-10-31T00:44:15;94013.25;;;10.47;100.00
4590;BME280;2307;48.448;9.216;2023-10-31T00:46:41;94023.28;;;10.50;100.00
4590;BME280;2307;48.448;9.216;2023-10-31T00:49:08;94023.81;;;10.47;100.00
4590;BME280;2307;48.448;9.216;2023-10-31T00:51:35;94019.31;;;10.48;100.00
4590;BME280;2307;48.448;9.216;2023-10-31T00:54:01;94021.19;;;10.42;100.00
4590;BME280;2307;48.448;9.216;2023-10-31T00:56:29;94020.13;;;10.38;100.00
4590;BME280;2307;48.448;9.216;2023-10-31T00:58:55;94022.25;;;10.36;100.00
4590;BME280;2307;48.448;9.216;2023-10-31T01:01:21;94040.19;;;10.34;100.00
4590;BME280;2307;48.448;9.216;2023-10-31T01:03:48;94030.69;;;10.28;100.00
4590;BME280;2307;48.448;9.216;2023-10-31T01:06:14;94037.56;;;10.19;100.00
4590;BME280;2307;48.448;9.216;2023-10-31T01:08:41;94034.69;;;10.21;100.00
4590;BME280;2307;48.448;9.216;2023-10-31T01:11:07;94048.13;;;10.24;100.00
4590;BME280;2307;48.448;9.216;2023-10-31T01:13:35;94060.53;;;10.24;100.00
4590;BME280;2307;48.448;9.216;2023-10-31T01:16:01;94058.16;;;10.22;100.00
4590;BME280;2307;48.448;9.216;2023-10-31T01:18:26;94079.00;;;10.13;100.00
4590;BME280;2307;48.448;9.216;2023-10-31T01:20:53;94075.56;;;10.18;100.00
4590;BME280;2307;48.448;9.216;2023-10-31T01:23:19;94093.25;;;10.18;100.00
4590;BME280;2307;48.448;9.216;2023-10-31T01:25:45;94108.25;;;10.07;100.00
4590;BME280;2307;48.448;9.216;2023-10-31T01:28:12;94095.81;;;9.87;100.00
4590;BME280;2307;48.448;9.216;2023-10-31T01:30:40;94104.53;;;9.83;100.00
4590;BME280;2307;48.448;9.216;2023-10-31T01:33:06;94107.38;;;9.66;100.00
4590;BME280;2307;48.448;9.216;2023-10-31T01:35:32;94115.50;;;9.54;100.00
4590;BME280;2307;48.448;9.216;2023-10-31T01:37:59;94119.69;;;9.45;100.00
4590;BME280;2307;48.448;9.216;2023-10-31T01:40:27;94129.72;;;9.38;100.00
4590;BME280;2307;48.448;9.216;2023-10-31T01:42:54;94130.19;;;9.30;100.00
4590;BME280;2307;48.448;9.216;2023-10-31T01:45:21;94124.13;;;9.30;100.00
4590;BME280;2307;48.448;9.216;2023-10-31T01:47:48;94134.38;;;9.26;100.00
4590;BME280;2307;48.448;9.216;2023-10-31T01:50:15;94148.84;;;9.19;100.00
4590;BME280;2307;48.448;9.216;2023-10-31T01:52:43;94147.03;;;9.24;100.00
4590;BME280;2307;48.448;9.216;2023-10-31T01:55:09;94144.16;;;9.26;100.00
4590;BME280;2307;48.448;9.216;2023-10-31T01:57:36;94146.25;;;9.29;100.00
4590;BME280;2307;48.448;9.216;2023-10-31T02:00:03;94150.44;;;9.25;100.00
4590;BME280;2307;48.448;9.216;2023-10-31T02:02:30;94141.00;;;9.29;100.00
4590;BME280;2307;48.448;9.216;2023-10-31T02:04:59;94149.94;;;9.33;100.00
4590;BME280;2307;48.448;9.216;2023-10-31T02:07:26;94153.38;;;9.33;100.00
4590;BME280;2307;48.448;9.216;2023-10-31T02:09:52;94159.97;;;9.36;100.00
4590;BME280;2307;48.448;9.216;2023-10-31T02:12:31;94161.84;;;9.40;100.00
4590;BME280;2307;48.448;9.216;2023-10-31T02:14:58;94167.13;;;9.40;100.00
4590;BME280;2307;48.448;9.216;2023-10-31T02:17:25;94160.78;;;9.36;100.00
4590;BME280;2307;48.448;9.216;2023-10-31T02:19:51;94157.59;;;9.34;100.00
4590;BME280;2307;48.448;9.216;2023-10-31T02:22:20;94160.78;;;9.36;100.00
4590;BME280;2307;48.448;9.216;2023-10-31T02:24:46;94163.44;;;9.41;100.00
4590;BME280;2307;48.448;9.216;2023-10-31T02:27:13;94163.34;;;9.26;100.00
4590;BME280;2307;48.448;9.216;2023-10-31T02:29:39;94152.00;;;9.21;100.00
4590;BME280;2307;48.448;9.216;2023-10-31T02:32:06;94153.31;;;9.18;100.00
4590;BME280;2307;48.448;9.216;2023-10-31T02:34:32;94148.84;;;9.19;100.00
4590;BME280;2307;48.448;9.216;2023-10-31T02:36:59;94141.75;;;9.19;100.00
4590;BME280;2307;48.448;9.216;2023-10-31T02:39:27;94144.88;;;9.16;100.00
4590;BME280;2307;48.448;9.216;2023-10-31T02:41:53;94144.38;;;9.19;100.00
4590;BME280;2307;48.448;9.216;2023-10-31T02:44:20;94150.41;;;9.20;100.00
4590;BME280;2307;48.448;9.216;2023-10-31T02:46:46;94160.19;;;9.24;100.00
4590;BME280;2307;48.448;9.216;2023-10-31T02:49:12;94154.91;;;9.24;100.00
4590;BME280;2307;48.448;9.216;2023-10-31T02:51:39;94149.13;;;9.27;100.00
4590;BME280;2307;48.448;9.216;2023-10-31T02:54:05;94156.53;;;9.30;100.00
4590;BME280;2307;48.448;9.216;2023-10-31T02:56:33;94159.69;;;9.32;100.00
4590;BME280;2307;48.448;9.216;2023-10-31T02:58:59;94157.06;;;9.32;100.00
4590;BME280;2307;48.448;9.216;2023-10-31T03:01:27;94165.78;;;9.38;100.00
4590;BME280;2307;48.448;9.216;2023-10-31T03:03:54;94170.28;;;9.42;100.00
4590;BME280;2307;48.448;9.216;2023-10-31T03:06:20;94178.75;;;9.49;100.00
4590;BME280;2307;48.448;9.216;2023-10-31T03:08:47;94178.75;;;9.54;100.00
4590;BME280;2307;48.448;9.216;2023-10-31T03:11:20;94178.28;;;9.57;100.00
4590;BME280;2307;48.448;9.216;2023-10-31T03:13:48;94185.16;;;9.69;100.00
4590;BME280;2307;48.448;9.216;2023-10-31T03:16:14;94186.50;;;9.76;100.00
4590;BME280;2307;48.448;9.216;2023-10-31T03:18:40;94199.41;;;9.73;100.00
4590;BME280;2307;48.448;9.216;2023-10-31T03:21:07;94205.25;;;9.80;100.00
4590;BME280;2307;48.448;9.216;2023-10-31T03:23:33;94201.00;;;9.79;100.00
4590;BME280;2307;48.448;9.216;2023-10-31T03:25:59;94199.69;;;9.81;100.00
4590;BME280;2307;48.448;9.216;2023-10-31T03:28:26;94199.69;;;9.81;100.00
4590;BME280;2307;48.448;9.216;2023-10-31T03:30:54;94202.84;;;9.78;100.00
4590;BME280;2307;48.448;9.216;2023-10-31T03:33:20;94205.72;;;9.77;100.00
4590;BME280;2307;48.448;9.216;2023-10-31T03:35:47;94203.09;;;9.77;100.00
4590;BME280;2307;48.448;9.216;2023-10-31T03:38:13;94214.47;;;9.82;100.00
4590;BME280;2307;48.448;9.216;2023-10-31T03:40:40;94218.44;;;9.85;100.00
4590;BME280;2307;48.448;9.216;2023-10-31T03:43:06;94224.19;;;9.77;100.00
4590;BME280;2307;48.448;9.216;2023-10-31T03:45:32;94226.81;;;9.72;100.00
4590;BME280;2307;48.448;9.216;2023-10-31T03:48:00;94223.59;;;9.59;100.00
4590;BME280;2307;48.448;9.216;2023-10-31T03:50:27;94230.66;;;9.49;100.00
4590;BME280;2307;48.448;9.216;2023-10-31T03:52:53;94238.25;;;9.35;100.00
4590;BME280;2307;48.448;9.216;2023-10-31T03:55:19;94238.72;;;9.32;100.00
4590;BME280;2307;48.448;9.216;2023-10-31T03:57:46;94235.78;;;9.24;100.00
4590;BME280;2307;48.448;9.216;2023-10-31T04:00:13;94234.88;;;9.03;100.00
4590;BME280;2307;48.448;9.216;2023-10-31T04:02:39;94236.41;;;8.94;100.00
4590;BME280;2307;48.448;9.216;2023-10-31T04:05:07;94238.75;;;8.95;100.00
4590;BME280;2307;48.448;9.216;2023-10-31T04:07:34;94247.44;;;8.91;100.00
4590;BME280;2307;48.448;9.216;2023-10-31T04:10:00;94237.41;;;8.88;100.00
4590;BME280;2307;48.448;9.216;2023-10-31T04:12:28;94242.09;;;8.81;100.00
4590;BME280;2307;48.448;9.216;2023-10-31T04:14:54;94238.88;;;8.79;100.00
4590;BME280;2307;48.448;9.216;2023-10-31T04:17:20;94238.94;;;8.84;100.00
4590;BME280;2307;48.448;9.216;2023-10-31T04:19:47;94237.41;;;8.88;100.00
4590;BME280;2307;48.448;9.216;2023-10-31T04:22:14;94240.28;;;8.86;100.00
4590;BME280;2307;48.448;9.216;2023-10-31T04:24:41;94236.84;;;8.86;100.00
4590;BME280;2307;48.448;9.216;2023-10-31T04:27:08;94236.84;;;8.86;100.00
4590;BME280;2307;48.448;9.216;2023-10-31T04:29:34;94237.84;;;8.75;100.00
4590;BME280;2307;48.448;9.216;2023-10-31T04:32:01;94240.50;;;8.80;100.00
4590;BME280;2307;48.448;9.216;2023-10-31T04:34:27;94232.84;;;8.78;100.00
4590;BME280;2307;48.448;9.216;2023-10-31T04:36:53;94234.69;;;8.78;100.00
4590;BME280;2307;48.448;9.216;2023-10-31T04:39:21;94230.16;;;8.73;100.00
4590;BME280;2307;48.448;9.216;2023-10-31T04:41:47;94232.81;;;8.73;100.00
4590;BME280;2307;48.448;9.216;2023-10-31T04:44:14;94234.91;;;8.71;100.00
4590;BME280;2307;48.448;9.216;2023-10-31T04:46:41;94237.84;;;8.75;100.00
4590;BME280;2307;48.448;9.216;2023-10-31T04:49:08;94241.00;;;8.77;100.00
4590;BME280;2307;48.448;9.216;2023-10-31T04:51:34;94230.97;;;8.74;100.00
4590;BME280;2307;48.448;9.216;2023-10-31T04:54:01;94232.84;;;8.78;100.00
4590;BME280;2307;48.448;9.216;2023-10-31T04:56:28;94236.22;;;8.74;100.00
4590;BME280;2307;48.448;9.216;2023-10-31T04:58:55;94238.38;;;8.77;100.00
4590;BME280;2307;48.448;9.216;2023-10-31T05:01:21;94243.38;;;8.78;100.00
4590;BME280;2307;48.448;9.216;2023-10-31T05:03:49;94251.28;;;8.78;100.00
4590;BME280;2307;48.448;9.216;2023-10-31T05:06:18;94245.22;;;8.78;100.00
4590;BME280;2307;48.448;9.216;2023-10-31T05:08:45;94247.28;;;8.76;100.00
4590;BME280;2307;48.448;9.216;2023-10-31T05:11:11;94234.94;;;8.76;100.00
4590;BME280;2307;48.448;9.216;2023-10-31T05:13:39;94247.06;;;8.77;100.00
4590;BME280;2307;48.448;9.216;2023-10-31T05:16:06;94241.03;;;8.82;100.00
4590;BME280;2307;48.448;9.216;2023-10-31T05:18:32;94241.22;;;8.75;100.00
4590;BME280;2307;48.448;9.216;2023-10-31T05:20:58;94254.91;;;8.72;100.00
4590;BME280;2307;48.448;9.216;2023-10-31T05:23:25;94257.53;;;8.72;100.00
4590;BME280;2307;48.448;9.216;2023-10-31T05:25:51;94263.28;;;8.69;100.00
4590;BME280;2307;48.448;9.216;2023-10-31T05:28:18;94272.50;;;8.67;100.00
4590;BME280;2307;48.448;9.216;2023-10-31T05:30:45;94272.50;;;8.67;100.00
4590;BME280;2307;48.448;9.216;2023-10-31T05:33:14;94271.66;;;8.61;100.00
4590;BME280;2307;48.448;9.216;2023-10-31T05:35:40;94287.47;;;8.66;100.00
4590;BME280;2307;48.448;9.216;2023-10-31T05:38:07;94278.25;;;8.64;100.00
4590;BME280;2307;48.448;9.216;2023-10-31T05:40:33;94283.00;;;8.67;100.00
4590;BME280;2307;48.448;9.216;2023-10-31T05:43:00;94280.66;;;8.65;100.00
4590;BME280;2307;48.448;9.216;2023-10-31T05:45:27;94273.81;;;8.69;100.00
4590;BME280;2307;48.448;9.216;2023-10-31T05:47:55;94271.44;;;8.68;100.00
4590;BME280;2307;48.448;9.216;2023-10-31T05:50:21;94286.25;;;8.74;100.00
4590;BME280;2307;48.448;9.216;2023-10-31T05:52:48;94292.53;;;8.73;100.00
4590;BME280;2307;48.448;9.216;2023-10-31T05:55:14;94280.94;;;8.69;100.00
4590;BME280;2307;48.448;9.216;2023-10-31T05:57:41;94286.72;;;8.66;100.00
4590;BME280;2307;48.448;9.216;2023-10-31T06:00:07;94276.94;;;8.66;100.00
4590;BME280;2307;48.448;9.216;2023-10-31T06:02:34;94275.13;;;8.67;100.00
4590;BME280;2307;48.448;9.216;2023-10-31T06:05:02;94282.41;;;8.60;100.00
4590;BME280;2307;48.448;9.216;2023-10-31T06:07:28;94288.25;;;8.62;100.00
4590;BME280;2307;48.448;9.216;2023-10-31T06:09:55;94289.28;;;8.61;100.00
4590;BME280;2307;48.448;9.216;2023-10-31T06:12:21;94304.06;;;8.67;100.00
4590;BME280;2307;48.448;9.216;2023-10-31T06:14:48;94302.19;;;8.62;100.00
4590;BME280;2307;48.448;9.216;2023-10-31T06:17:14;94297.72;;;8.63;100.00
4590;BME280;2307;48.448;9.216;2023-10-31T06:19:41;94300.09;;;8.64;100.00
4590;BME280;2307;48.448;9.216;2023-10-31T06:22:11;94310.63;;;8.64;100.00
4590;BME280;2307;48.448;9.216;2023-10-31T06:24:38;94301.41;;;8.62;100.00
4590;BME280;2307;48.448;9.216;2023-10-31T06:27:05;94301.63;;;8.60;100.00
4590;BME280;2307;48.448;9.216;2023-10-31T06:29:32;94315.84;;;8.59;100.00
4590;BME280;2307;48.448;9.216;2023-10-31T06:31:58;94309.31;;;8.62;100.00
4590;BME280;2307;48.448;9.216;2023-10-31T06:34:24;94322.19;;;8.63;100.00
4590;BME280;2307;48.448;9.216;2023-10-31T06:36:51;94316.41;;;8.61;100.00
4590;BME280;2307;48.448;9.216;2023-10-31T06:39:19;94320.84;;;8.61;100.00
4590;BME280;2307;48.448;9.216;2023-10-31T06:41:45;94324.53;;;8.60;100.00
4590;BME280;2307;48.448;9.216;2023-10-31T06:44:12;94332.47;;;8.65;100.00
4590;BME280;2307;48.448;9.216;2023-10-31T06:46:38;94336.16;;;8.64;100.00
4590;BME280;2307;48.448;9.216;2023-10-31T06:49:04;94332.53;;;8.70;100.00
4590;BME280;2307;48.448;9.216;2023-10-31T06:51:31;94344.16;;;8.74;100.00
4590;BME280;2307;48.448;9.216;2023-10-31T06:53:57;94328.91;;;8.76;100.00
4590;BME280;2307;48.448;9.216;2023-10-31T06:56:25;94340.53;;;8.80;100.00
4590;BME280;2307;48.448;9.216;2023-10-31T06:58:53;94337.91;;;8.80;100.00
4590;BME280;2307;48.448;9.216;2023-10-31T07:01:20;94340.03;;;8.83;100.00
4590;BME280;2307;48.448;9.216;2023-10-31T07:03:46;94348.72;;;8.83;100.00
4590;BME280;2307;48.448;9.216;2023-10-31T07:06:13;94362.69;;;8.84;100.00
4590;BME280;2307;48.448;9.216;2023-10-31T07:08:39;94353.72;;;8.85;100.00
4590;BME280;2307;48.448;9.216;2023-10-31T07:11:06;94362.97;;;8.87;100.00
4590;BME280;2307;48.448;9.216;2023-10-31T07:13:33;94356.66;;;8.88;100.00
4590;BME280;2307;48.448;9.216;2023-10-31T07:16:00;94367.25;;;8.93;100.00
4590;BME280;2307;48.448;9.216;2023-10-31T07:18:26;94365.16;;;8.95;100.00
4590;BME280;2307;48.448;9.216;2023-10-31T07:20:53;94353.31;;;8.98;100.00
4590;BME280;2307;48.448;9.216;2023-10-31T07:23:19;94352.78;;;8.96;100.00
4590;BME280;2307;48.448;9.216;2023-10-31T07:25:45;94352.28;;;8.99;100.00
4590;BME280;2307;48.448;9.216;2023-10-31T07:28:12;94362.84;;;9.04;100.00
4590;BME280;2307;48.448;9.216;2023-10-31T07:30:39;94357.59;;;9.04;100.00
4590;BME280;2307;48.448;9.216;2023-10-31T07:33:06;94376.03;;;9.04;100.00
4590;BME280;2307;48.448;9.216;2023-10-31T07:35:32;94370.50;;;9.05;100.00
4590;BME280;2307;48.448;9.216;2023-10-31T07:37:59;94361.81;;;9.05;100.00
4590;BME280;2307;48.448;9.216;2023-10-31T07:40:28;94382.66;;;9.06;100.00
4590;BME280;2307;48.448;9.216;2023-10-31T07:42:54;94384.22;;;9.07;100.00
4590;BME280;2307;48.448;9.216;2023-10-31T07:45:21;94382.38;;;9.08;100.00
4590;BME280;2307;48.448;9.216;2023-10-31T07:47:48;94385.03;;;9.08;100.00
4590;BME280;2307;48.448;9.216;2023-10-31T07:50:15;94390.28;;;9.08;100.00
4590;BME280;2307;48.448;9.216;2023-10-31T07:52:41;94378.22;;;9.12;100.00
4590;BME280;2307;48.448;9.216;2023-10-31T07:55:08;94387.72;;;9.13;100.00
4590;BME280;2307;48.448;9.216;2023-10-31T07:57:36;94388.78;;;9.17;100.00
4590;BME280;2307;48.448;9.216;2023-10-31T08:00:03;94383.81;;;9.21;100.00
4590;BME280;2307;48.448;9.216;2023-10-31T08:02:29;94381.47;;;9.24;100.00
4590;BME280;2307;48.448;9.216;2023-10-31T08:04:57;94372.53;;;9.25;100.00
4590;BME280;2307;48.448;9.216;2023-10-31T08:07:24;94397.91;;;9.36;100.00
4590;BME280;2307;48.448;9.216;2023-10-31T08:09:55;94382.59;;;9.33;100.00
4590;BME280;2307;48.448;9.216;2023-10-31T08:12:21;94384.22;;;9.39;100.00
4590;BME280;2307;48.448;9.216;2023-10-31T08:14:48;94381.88;;;9.43;100.00
4590;BME280;2307;48.448;9.216;2023-10-31T08:17:14;94378.50;;;9.47;100.00
4590;BME280;2307;48.448;9.216;2023-10-31T08:19:40;94378.53;;;9.52;100.00
4590;BME280;2307;48.448;9.216;2023-10-31T08:22:09;94373.53;;;9.51;100.00
4590;BME280;2307;48.448;9.216;2023-10-31T08:24:35;94387.78;;;9.55;100.00
4590;BME280;2307;48.448;9.216;2023-10-31T08:27:02;94380.72;;;9.60;100.00
4590;BME280;2307;48.448;9.216;2023-10-31T08:29:28;94391.81;;;9.68;100.00
4590;BME280;2307;48.448;9.216;2023-10-31T08:31:54;94382.38;;;9.72;100.00
4590;BME280;2307;48.448;9.216;2023-10-31T08:34:21;94388.66;;;9.71;100.00
4590;BME280;2307;48.448;9.216;2023-10-31T08:36:48;94377.91;;;9.77;100.00
4590;BME280;2307;48.448;9.216;2023-10-31T08:39:16;94382.38;;;9.77;100.00
4590;BME280;2307;48.448;9.216;2023-10-31T08:41:49;94378.19;;;9.76;100.00
4590;BME280;2307;48.448;9.216;2023-10-31T08:44:15;94386.41;;;9.84;100.00
4590;BME280;2307;48.448;9.216;2023-10-31T08:46:42;94378.78;;;9.88;100.00
4590;BME280;2307;48.448;9.216;2023-10-31T08:49:08;94379.34;;;9.95;100.00
4590;BME280;2307;48.448;9.216;2023-10-31T08:51:34;94388.88;;;10.01;100.00
4590;BME280;2307;48.448;9.216;2023-10-31T08:54:01;94382.06;;;10.10;100.00
4590;BME280;2307;48.448;9.216;2023-10-31T08:56:29;94393.22;;;10.17;100.00
4590;BME280;2307;48.448;9.216;2023-10-31T08:58:55;94391.63;;;10.21;100.00
4590;BME280;2307;48.448;9.216;2023-10-31T09:01:21;94400.63;;;10.25;100.00
4590;BME280;2307;48.448;9.216;2023-10-31T09:03:48;94393.78;;;10.24;100.00
4590;BME280;2307;48.448;9.216;2023-10-31T09:06:15;94411.47;;;10.29;100.00
4590;BME280;2307;48.448;9.216;2023-10-31T09:08:41;94415.94;;;10.28;100.00
4590;BME280;2307;48.448;9.216;2023-10-31T09:11:07;94418.63;;;10.33;100.00
4590;BME280;2307;48.448;9.216;2023-10-31T09:13:35;94402.81;;;10.38;100.00
4590;BME280;2307;48.448;9.216;2023-10-31T09:16:02;94409.94;;;10.38;100.00
4590;BME280;2307;48.448;9.216;2023-10-31T09:18:28;94397.28;;;10.40;100.00
4590;BME280;2307;48.448;9.216;2023-10-31T09:20:54;94394.91;;;10.43;100.00
4590;BME280;2307;48.448;9.216;2023-10-31T09:23:21;94402.59;;;10.45;100.00
4590;BME280;2307;48.448;9.216;2023-10-31T09:25:47;94400.22;;;10.53;100.00
4590;BME280;2307;48.448;9.216;2023-10-31T09:28:14;94394.94;;;10.48;100.00
4590;BME280;2307;48.448;9.216;2023-10-31T09:30:41;94401.81;;;10.54;100.00
4590;BME280;2307;48.448;9.216;2023-10-31T09:33:08;94399.75;;;10.61;100.00
4590;BME280;2307;48.448;9.216;2023-10-31T09:35:35;94409.78;;;10.64;100.00
4590;BME280;2307;48.448;9.216;2023-10-31T09:38:01;94408.47;;;10.67;100.00
4590;BME280;2307;48.448;9.216;2023-10-31T09:40:27;94395.28;;;10.72;100.00
4590;BME280;2307;48.448;9.216;2023-10-31T09:42:54;94400.56;;;10.72;100.00
4590;BME280;2307;48.448;9.216;2023-10-31T09:45:20;94402.72;;;10.80;100.00
4590;BME280;2307;48.448;9.216;2023-10-31T09:47:48;94399.81;;;10.92;100.00
4590;BME280;2307;48.448;9.216;2023-10-31T09:50:15;94394.56;;;10.97;100.00
4590;BME280;2307;48.448;9.216;2023-10-31T09:52:41;94399.59;;;11.03;100.00
4590;BME280;2307;48.448;9.216;2023-10-31T09:55:08;94405.94;;;11.02;100.00
4590;BME280;2307;48.448;9.216;2023-10-31T09:57:34;94414.09;;;11.01;100.00
4590;BME280;2307;48.448;9.216;2023-10-31T10:00:01;94419.41;;;11.01;100.00
4590;BME280;2307;48.448;9.216;2023-10-31T10:02:27;94407.22;;;10.90;100.00
4590;BME280;2307;48.448;9.216;2023-10-31T10:04:55;94412.78;;;10.93;100.00
4590;BME280;2307;48.448;9.216;2023-10-31T10:07:21;94407.78;;;10.97;100.00
4590;BME280;2307;48.448;9.216;2023-10-31T10:09:47;94402.78;;;11.05;100.00
4590;BME280;2307;48.448;9.216;2023-10-31T10:12:15;94408.84;;;11.06;100.00
4590;BME280;2307;48.448;9.216;2023-10-31T10:14:41;94405.69;;;11.09;100.00
4590;BME280;2307;48.448;9.216;2023-10-31T10:17:13;94417.56;;;11.16;100.00
4590;BME280;2307;48.448;9.216;2023-10-31T10:19:40;94419.97;;;11.18;100.00
4590;BME280;2307;48.448;9.216;2023-10-31T10:22:08;94413.88;;;11.17;100.00
4590;BME280;2307;48.448;9.216;2023-10-31T10:24:35;94417.03;;;11.19;100.00
4590;BME280;2307;48.448;9.216;2023-10-31T10:27:01;94432.66;;;11.16;100.00
4590;BME280;2307;48.448;9.216;2023-10-31T10:29:28;94450.59;;;11.14;100.00
4590;BME280;2307;48.448;9.216;2023-10-31T10:31:54;94426.56;;;11.05;100.00
4590;BME280;2307;48.448;9.216;2023-10-31T10:34:20;94426.03;;;11.03;100.00
4590;BME280;2307;48.448;9.216;2023-10-31T10:36:47;94427.88;;;11.08;100.00
4590;BME280;2307;48.448;9.216;2023-10-31T10:39:16;94430.00;;;11.06;100.00
4590;BME280;2307;48.448;9.216;2023-10-31T10:41:45;94440.00;;;11.04;100.00
4590;BME280;2307;48.448;9.216;2023-10-31T10:44:13;94428.16;;;11.06;100.00
4590;BME280;2307;48.448;9.216;2023-10-31T10:46:41;94436.34;;;11.15;100.00
4590;BME280;2307;48.448;9.216;2023-10-31T10:49:12;94441.09;;;11.18;100.00
4590;BME280;2307;48.448;9.216;2023-10-31T10:51:43;94441.09;;;11.23;100.00
4590;BME280;2307;48.448;9.216;2023-10-31T10:54:14;94444.28;;;11.30;100.00
4590;BME280;2307;48.448;9.216;2023-10-31T10:56:44;94442.19;;;11.32;100.00
4590;BME280;2307;48.448;9.216;2023-10-31T10:59:12;94440.09;;;11.34;100.00
4590;BME280;2307;48.448;9.216;2023-10-31T11:01:40;94453.03;;;11.46;100.00
4590;BME280;2307;48.448;9.216;2023-10-31T11:04:07;94446.44;;;11.48;100.00
4590;BME280;2307;48.448;9.216;2023-10-31T11:06:34;94453.84;;;11.56;100.00
4590;BME280;2307;48.448;9.216;2023-10-31T11:09:03;94444.06;;;11.52;100.00
4590;BME280;2307;48.448;9.216;2023-10-31T11:11:31;94449.91;;;11.54;100.00
4590;BME280;2307;48.448;9.216;2023-10-31T11:14:00;94448.84;;;11.60;100.00
4590;BME280;2307;48.448;9.216;2023-10-31T11:16:29;94449.63;;;11.65;100.00
4590;BME280;2307;48.448;9.216;2023-10-31T11:18:58;94454.94;;;11.96;100.00
4590;BME280;2307;48.448;9.216;2023-10-31T11:21:27;94444.91;;;11.98;100.00
4590;BME280;2307;48.448;9.216;2023-10-31T11:23:56;94448.06;;;12.00;100.00
4590;BME280;2307;48.448;9.216;2023-10-31T11:26:25;94455.22;;;12.04;100.00
4590;BME280;2307;48.448;9.216;2023-10-31T11:28:51;94448.84;;;12.20;100.00
4590;BME280;2307;48.448;9.216;2023-10-31T11:31:19;94452.81;;;12.13;100.00
4590;BME280;2307;48.448;9.216;2023-10-31T11:33:46;94450.44;;;12.01;100.00
4590;BME280;2307;48.448;9.216;2023-10-31T11:36:13;94462.88;;;11.91;100.00
4590;BME280;2307;48.448;9.216;2023-10-31T11:38:40;94453.34;;;11.80;100.00
4590;BME280;2307;48.448;9.216;2023-10-31T11:41:07;94454.91;;;11.65;100.00
4590;BME280;2307;48.448;9.216;2023-10-31T11:43:52;94464.44;;;11.56;100.00
4590;BME280;2307;48.448;9.216;2023-10-31T11:46:20;94459.66;;;11.43;100.00
4590;BME280;2307;48.448;9.216;2023-10-31T11:48:50;94471.00;;;11.39;100.00
4590;BME280;2307;48.448;9.216;2023-10-31T11:51:18;94463.59;;;11.36;100.00
4590;BME280;2307;48.448;9.216;2023-10-31T11:53:44;94460.69;;;11.27;100.00
4590;BME280;2307;48.448;9.216;2023-10-31T11:56:11;94464.94;;;11.43;100.00
4590;BME280;2307;48.448;9.216;2023-10-31T11:58:37;94467.59;;;11.58;100.00
4590;BME280;2307;48.448;9.216;2023-10-31T12:01:04;94454.97;;;11.76;100.00
4590;BME280;2307;48.448;9.216;2023-10-31T12:03:37;94455.47;;;11.88;100.00
4590;BME280;2307;48.448;9.216;2023-10-31T12:06:04;94458.66;;;12.05;100.00
4590;BME280;2307;48.448;9.216;2023-10-31T12:08:32;94465.97;;;12.48;100.00
4590;BME280;2307;48.448;9.216;2023-10-31T12:11:05;94458.41;;;12.91;100.00
4590;BME280;2307;48.448;9.216;2023-10-31T12:13:32;94454.66;;;13.12;100.00
4590;BME280;2307;48.448;9.216;2023-10-31T12:15:59;94463.06;;;13.24;100.00
4590;BME280;2307;48.448;9.216;2023-10-31T12:18:27;94461.47;;;13.23;100.00
4590;BME280;2307;48.448;9.216;2023-10-31T12:20:55;94469.75;;;13.01;100.00
4590;BME280;2307;48.448;9.216;2023-10-31T12:23:21;94470.56;;;13.02;100.00
4590;BME280;2307;48.448;9.216;2023-10-31T12:25:48;94465.75;;;13.14;100.00
4590;BME280;2307;48.448;9.216;2023-10-31T12:28:17;94470.22;;;13.28;100.00
4590;BME280;2307;48.448;9.216;2023-10-31T12:30:44;94467.59;;;13.18;100.00
4590;BME280;2307;48.448;9.216;2023-10-31T12:33:11;94467.88;;;13.07;100.00
4590;BME280;2307;48.448;9.216;2023-10-31T12:35:38;94470.34;;;12.93;100.00
4590;BME280;2307;48.448;9.216;2023-10-31T12:38:06;94465.13;;;12.68;100.00
4590;BME280;2307;48.448;9.216;2023-10-31T12:40:33;94470.75;;;12.51;100.00
4590;BME280;2307;48.448;9.216;2023-10-31T12:43:00;94483.97;;;12.51;100.00
4590;BME280;2307;48.448;9.216;2023-10-31T12:45:28;94477.13;;;12.45;100.00
4590;BME280;2307;48.448;9.216;2023-10-31T12:48:01;94482.66;;;12.44;100.00
4590;BME280;2307;48.448;9.216;2023-10-31T12:50:30;94481.88;;;12.43;100.00
4590;BME280;2307;48.448;9.216;2023-10-31T12:52:56;94484.28;;;12.30;100.00
4590;BME280;2307;48.448;9.216;2023-10-31T12:55:26;94481.38;;;12.36;100.00
4590;BME280;2307;48.448;9.216;2023-10-31T12:57:53;94489.03;;;12.48;100.00
4590;BME280;2307;48.448;9.216;2023-10-31T13:00:20;94483.69;;;12.63;100.00
4590;BME280;2307;48.448;9.216;2023-10-31T13:02:50;94480.00;;;12.54;100.00
4590;BME280;2307;48.448;9.216;2023-10-31T13:05:17;94487.97;;;12.44;100.00
4590;BME280;2307;48.448;9.216;2023-10-31T13:07:47;94491.97;;;12.21;100.00
4590;BME280;2307;48.448;9.216;2023-10-31T13:10:15;94491.72;;;12.22;100.00
4590;BME280;2307;48.448;9.216;2023-10-31T13:12:44;94483.25;;;12.15;100.00
4590;BME280;2307;48.448;9.216;2023-10-31T13:15:11;94487.75;;;12.05;100.00